createdAt,value
2022-11-16T00:02:18.734Z,9.00
2022-11-16T00:04:47.320Z,8.38
2022-11-16T00:07:16.283Z,8.80
2022-11-16T00:09:44.766Z,6.80
2022-11-16T00:12:14.608Z,7.57
2022-11-16T00:14:45.415Z,8.82
2022-11-16T00:17:14.441Z,7.05
2022-11-16T00:19:43.243Z,7.40
2022-11-16T00:22:11.639Z,6.95
2022-11-16T00:24:40.121Z,7.60
2022-11-16T00:27:08.878Z,7.28
2022-11-16T00:29:39.071Z,7.80
2022-11-16T00:32:07.674Z,7.30
2022-11-16T00:34:36.037Z,7.00
2022-11-16T00:37:05.869Z,7.18
2022-11-16T00:39:34.546Z,7.85
2022-11-16T00:42:03.239Z,8.50
2022-11-16T00:44:31.620Z,7.88
2022-11-16T00:47:01.582Z,8.32
2022-11-16T00:49:30.170Z,5.97
2022-11-16T00:51:58.886Z,7.93
2022-11-16T00:54:31.773Z,8.45
2022-11-16T00:57:03.314Z,8.50
2022-11-16T00:59:31.809Z,6.93
2022-11-16T01:02:03.845Z,7.00
2022-11-16T01:04:32.365Z,7.88
2022-11-16T01:07:01.188Z,7.28
2022-11-16T01:09:29.733Z,7.32
2022-11-16T01:12:09.570Z,7.55
2022-11-16T01:14:41.104Z,6.85
2022-11-16T01:17:11.212Z,7.15
2022-11-16T01:19:39.635Z,7.00
2022-11-16T01:22:08.817Z,7.45
2022-11-16T01:24:37.390Z,6.47
2022-11-16T01:27:05.896Z,7.10
2022-11-16T01:29:37.247Z,6.22
2022-11-16T01:32:06.151Z,7.70
2022-11-16T01:34:36.985Z,7.22
2022-11-16T01:37:21.853Z,6.60
2022-11-16T01:39:56.418Z,6.30
2022-11-16T01:45:05.355Z,5.80
2022-11-16T01:47:35.720Z,6.28
2022-11-16T01:50:11.401Z,6.50
2022-11-16T01:52:47.584Z,6.82
2022-11-16T01:55:16.855Z,6.10
2022-11-16T01:58:09.708Z,5.47
2022-11-16T02:00:41.770Z,6.32
2022-11-16T02:03:33.545Z,5.70
2022-11-16T02:06:16.956Z,6.05
2022-11-16T02:09:20.191Z,5.85
2022-11-16T02:12:13.360Z,5.20
2022-11-16T02:15:04.927Z,5.30
2022-11-16T02:17:44.883Z,6.25
2022-11-16T02:20:45.826Z,5.22
2022-11-16T02:23:56.496Z,5.68
2022-11-16T02:26:45.736Z,5.75
2022-11-16T02:29:22.885Z,5.70
2022-11-16T02:32:00.340Z,5.88
2022-11-16T02:34:35.185Z,5.95
2022-11-16T02:37:07.341Z,5.65
2022-11-16T02:39:38.418Z,5.55
2022-11-16T02:42:11.870Z,6.35
2022-11-16T02:44:47.669Z,5.18
2022-11-16T02:47:21.423Z,5.43
2022-11-16T02:49:56.596Z,6.00
2022-11-16T02:52:27.025Z,5.10
2022-11-16T02:54:55.656Z,4.47
2022-11-16T02:57:36.685Z,6.47
2022-11-16T03:00:09.029Z,5.78
2022-11-16T03:02:51.541Z,5.15
2022-11-16T03:05:32.198Z,4.93
2022-11-16T03:08:20.946Z,4.65
2022-11-16T03:11:12.178Z,4.13
2022-11-16T03:13:42.276Z,4.75
2022-11-16T03:16:18.325Z,5.15
2022-11-16T03:18:48.603Z,5.35
2022-11-16T03:21:23.256Z,5.40
2022-11-16T03:23:52.493Z,4.30
2022-11-16T03:26:25.736Z,4.00
2022-11-16T03:29:02.116Z,4.38
2022-11-16T03:31:39.943Z,4.50
2022-11-16T03:34:13.764Z,4.55
2022-11-16T03:36:46.185Z,4.20
2022-11-16T03:39:21.683Z,4.28
2022-11-16T03:41:52.001Z,4.10
2022-11-16T03:44:21.880Z,6.03
2022-11-16T03:46:51.977Z,4.80
2022-11-16T03:49:22.988Z,4.43
2022-11-16T03:51:53.610Z,4.25
2022-11-16T03:54:22.526Z,4.53
2022-11-16T03:56:50.998Z,4.63
2022-11-16T03:59:19.907Z,4.60
2022-11-16T04:01:48.468Z,4.63
2022-11-16T04:04:32.358Z,4.40
2022-11-16T04:07:18.982Z,4.70
2022-11-16T04:10:04.994Z,4.72
2022-11-16T04:12:51.796Z,4.65
2022-11-16T04:15:37.853Z,5.00
2022-11-16T04:18:24.102Z,4.43
2022-11-16T04:21:11.023Z,5.13
2022-11-16T04:23:57.294Z,4.90
2022-11-16T04:26:50.737Z,5.00
2022-11-16T04:29:19.275Z,5.95
2022-11-16T04:32:05.739Z,5.93
2022-11-16T04:34:51.980Z,4.97
2022-11-16T04:37:39.499Z,4.32
2022-11-16T04:40:09.476Z,4.13
2022-11-16T04:42:43.206Z,5.00
2022-11-16T04:45:29.102Z,4.65
2022-11-16T04:47:57.588Z,4.50
2022-11-16T04:50:31.145Z,4.82
2022-11-16T04:53:03.371Z,4.93
2022-11-16T04:55:35.245Z,5.05
2022-11-16T04:58:04.325Z,5.88
2022-11-16T05:00:33.510Z,4.88
2022-11-16T05:03:04.143Z,4.22
2022-11-16T05:05:33.166Z,5.00
2022-11-16T05:08:04.750Z,5.22
2022-11-16T05:10:34.489Z,5.03
2022-11-16T05:13:04.243Z,5.22
2022-11-16T05:15:34.597Z,5.40
2022-11-16T05:18:03.542Z,4.85
2022-11-16T05:20:49.467Z,4.82
2022-11-16T05:23:36.540Z,4.72
2022-11-16T05:26:10.874Z,4.82
2022-11-16T05:28:39.989Z,4.88
2022-11-16T05:31:10.491Z,5.13
2022-11-16T05:33:39.076Z,5.63
2022-11-16T05:36:08.600Z,5.38
2022-11-16T05:38:39.209Z,6.03
2022-11-16T05:41:07.789Z,5.53
2022-11-16T05:43:36.501Z,4.93
2022-11-16T05:46:13.209Z,5.32
2022-11-16T05:48:41.997Z,5.53
2022-11-16T05:51:10.423Z,4.28
2022-11-16T05:53:41.195Z,4.47
2022-11-16T05:56:10.006Z,5.38
2022-11-16T05:58:41.054Z,5.35
2022-11-16T06:01:09.651Z,5.57
2022-11-16T06:03:39.425Z,4.93
2022-11-16T06:06:08.319Z,4.78
2022-11-16T06:08:37.879Z,4.57
2022-11-16T06:11:12.533Z,4.97
2022-11-16T06:13:41.361Z,4.65
2022-11-16T06:16:10.032Z,5.22
2022-11-16T06:18:40.397Z,5.10
2022-11-16T06:21:10.895Z,4.65
2022-11-16T06:23:39.508Z,4.40
2022-11-16T06:26:08.821Z,4.65
2022-11-16T06:28:39.063Z,4.53
2022-11-16T06:31:07.844Z,5.10
2022-11-16T06:33:41.172Z,5.78
2022-11-16T06:36:20.884Z,4.53
2022-11-16T06:38:50.955Z,5.15
2022-11-16T06:41:21.173Z,4.88
2022-11-16T06:43:52.706Z,5.55
2022-11-16T06:46:26.075Z,5.13
2022-11-16T06:48:55.194Z,5.20
2022-11-16T06:51:23.572Z,5.72
2022-11-16T06:53:52.384Z,4.63
2022-11-16T06:56:22.385Z,5.13
2022-11-16T06:58:57.450Z,5.00
2022-11-16T07:01:28.211Z,5.93
2022-11-16T07:04:05.491Z,4.75
2022-11-16T07:06:34.673Z,4.57
2022-11-16T07:09:06.551Z,4.90
2022-11-16T07:11:35.468Z,5.75
2022-11-16T07:14:06.617Z,6.20
2022-11-16T07:16:36.776Z,6.22
2022-11-16T07:19:07.003Z,5.60
2022-11-16T07:21:38.205Z,4.93
2022-11-16T07:24:10.582Z,5.60
2022-11-16T07:26:38.953Z,5.35
2022-11-16T07:29:13.983Z,5.43
2022-11-16T07:31:47.583Z,5.15
2022-11-16T07:34:57.154Z,4.97
2022-11-16T07:37:27.555Z,5.05
2022-11-16T07:39:56.310Z,4.60
2022-11-16T07:42:26.004Z,5.75
2022-11-16T07:45:12.784Z,5.97
2022-11-16T07:47:52.507Z,5.30
2022-11-16T07:50:39.755Z,6.45
2022-11-16T07:53:08.645Z,6.57
2022-11-16T07:55:38.240Z,6.47
2022-11-16T07:58:06.826Z,5.53
2022-11-16T08:00:37.100Z,6.40
2022-11-16T08:03:14.407Z,6.53
2022-11-16T08:05:44.688Z,7.78
2022-11-16T08:08:13.800Z,6.03
2022-11-16T08:10:43.950Z,5.82
2022-11-16T08:13:13.041Z,6.28
2022-11-16T08:15:45.158Z,5.60
2022-11-16T08:18:13.816Z,5.65
2022-11-16T08:20:42.350Z,6.15
2022-11-16T08:23:11.356Z,5.65
2022-11-16T08:25:40.086Z,5.90
2022-11-16T08:28:09.405Z,5.60
2022-11-16T08:30:40.223Z,9.15
2022-11-16T08:33:11.322Z,8.45
2022-11-16T08:35:39.822Z,6.10
2022-11-16T08:38:09.108Z,6.50
2022-11-16T08:40:38.650Z,5.75
2022-11-16T08:43:07.492Z,5.60
2022-11-16T08:45:38.302Z,6.32
2022-11-16T08:48:08.493Z,8.05
2022-11-16T08:51:10.053Z,7.03
2022-11-16T08:53:28.516Z,6.07
2022-11-16T08:55:56.898Z,6.10
2022-11-16T08:58:25.268Z,6.15
2022-11-16T09:00:54.882Z,6.60
2022-11-16T09:03:23.241Z,7.10
2022-11-16T09:05:53.979Z,5.70
2022-11-16T09:08:22.370Z,7.15
2022-11-16T09:10:50.775Z,8.13
2022-11-16T09:13:19.309Z,6.13
2022-11-16T09:15:47.786Z,6.43
2022-11-16T09:18:16.373Z,4.88
2022-11-16T09:20:45.879Z,4.50
2022-11-16T09:23:17.789Z,4.47
2022-11-16T09:25:49.022Z,5.82
2022-11-16T09:28:18.023Z,5.50
2022-11-16T09:30:47.582Z,5.85
2022-11-16T09:33:16.309Z,6.30
2022-11-16T09:35:44.978Z,6.88
2022-11-16T09:38:19.097Z,6.07
2022-11-16T09:40:55.562Z,5.65
2022-11-16T09:43:39.731Z,7.40
2022-11-16T09:46:25.934Z,5.22
2022-11-16T09:48:59.447Z,4.97
2022-11-16T09:51:33.017Z,5.32
2022-11-16T09:54:06.229Z,6.97
2022-11-16T09:56:40.563Z,7.30
2022-11-16T09:59:18.240Z,5.57
2022-11-16T10:01:52.695Z,5.38
2022-11-16T10:04:27.879Z,6.88
2022-11-16T10:07:02.110Z,6.15
2022-11-16T10:09:31.905Z,5.13
2022-11-16T10:12:15.265Z,5.20
2022-11-16T10:15:13.593Z,4.90
2022-11-16T10:18:04.748Z,5.60
2022-11-16T10:20:51.337Z,5.00
2022-11-16T10:23:30.468Z,4.95
2022-11-16T10:26:10.193Z,5.82
2022-11-16T10:28:58.251Z,4.75
2022-11-16T10:31:34.114Z,5.80
2022-11-16T10:34:07.021Z,4.88
2022-11-16T10:36:38.901Z,4.60
2022-11-16T10:42:11.706Z,4.50
2022-11-16T10:44:45.882Z,4.65
2022-11-16T10:47:21.034Z,4.68
2022-11-16T10:49:57.413Z,5.00
2022-11-16T10:52:26.387Z,5.45
2022-11-16T10:54:55.133Z,4.50
2022-11-16T10:57:24.990Z,4.75
2022-11-16T10:59:58.138Z,4.57
2022-11-16T11:02:35.907Z,4.65
2022-11-16T11:05:08.070Z,4.07
2022-11-16T11:07:40.039Z,4.43
2022-11-16T11:10:31.005Z,5.35
2022-11-16T11:13:18.857Z,3.05
2022-11-16T11:15:51.334Z,3.22
2022-11-16T11:18:26.766Z,2.50
2022-11-16T11:21:10.313Z,3.30
2022-11-16T11:23:48.874Z,3.03
2022-11-16T11:26:36.502Z,3.45
2022-11-16T11:29:18.359Z,3.08
2022-11-16T11:31:54.896Z,3.08
2022-11-16T11:34:27.764Z,4.00
2022-11-16T11:37:01.601Z,4.18
2022-11-16T11:39:33.172Z,3.63
2022-11-16T11:42:08.027Z,4.30
2022-11-16T11:44:51.071Z,3.90
2022-11-16T11:50:25.095Z,4.68
2022-11-16T11:53:04.905Z,3.60
2022-11-16T11:55:33.904Z,3.40
2022-11-16T11:58:05.866Z,3.33
2022-11-16T12:00:45.290Z,3.30
2022-11-16T12:03:41.245Z,3.33
2022-11-16T12:06:18.772Z,3.63
2022-11-16T12:09:02.217Z,4.07
2022-11-16T12:11:47.416Z,3.72
2022-11-16T12:14:27.723Z,3.05
2022-11-16T12:20:03.477Z,3.05
2022-11-16T12:23:01.040Z,3.42
2022-11-16T12:25:43.841Z,4.35
2022-11-16T12:28:26.281Z,3.70
2022-11-16T12:31:06.991Z,4.18
2022-11-16T12:36:25.036Z,6.43
2022-11-16T12:39:05.934Z,6.25
2022-11-16T12:42:19.632Z,5.95
2022-11-16T12:45:16.472Z,6.97
2022-11-16T12:48:00.580Z,10.35
2022-11-16T12:50:46.948Z,5.95
2022-11-16T12:56:10.366Z,7.82
2022-11-16T12:58:56.543Z,5.93
2022-11-16T13:01:30.899Z,5.65
2022-11-16T13:04:05.187Z,7.43
2022-11-16T13:06:41.160Z,8.20
2022-11-16T13:09:14.927Z,8.68
2022-11-16T13:11:49.114Z,9.00
2022-11-16T13:14:21.406Z,7.88
2022-11-16T13:16:52.168Z,10.07
2022-11-16T13:19:22.158Z,6.93
2022-11-16T13:21:59.963Z,7.90
2022-11-16T13:24:48.677Z,9.82
2022-11-16T13:27:29.549Z,7.38
2022-11-16T13:30:02.972Z,6.55
2022-11-16T13:32:49.473Z,5.93
2022-11-16T13:35:21.077Z,5.88
2022-11-16T13:37:52.154Z,5.43
2022-11-16T13:40:47.423Z,6.45
2022-11-16T13:43:21.194Z,5.30
2022-11-16T13:45:59.824Z,5.68
2022-11-16T13:48:33.916Z,5.25
2022-11-16T13:51:05.289Z,5.85
2022-11-16T13:56:29.280Z,12.40
2022-11-16T13:59:00.151Z,14.75
2022-11-16T14:01:58.715Z,17.05
2022-11-16T14:04:58.169Z,17.88
2022-11-16T14:07:37.422Z,17.25
2022-11-16T14:10:08.163Z,18.15
2022-11-16T14:13:00.875Z,18.83
2022-11-16T14:15:34.504Z,19.30
2022-11-16T14:18:32.057Z,18.33
2022-11-16T14:21:08.421Z,19.17
2022-11-16T14:23:53.526Z,21.13
2022-11-16T14:26:29.219Z,21.08
2022-11-16T14:29:20.317Z,19.30
2022-11-16T14:31:52.754Z,18.40
2022-11-16T14:34:25.075Z,18.00
2022-11-16T14:36:57.343Z,17.00
2022-11-16T14:39:33.356Z,16.30
2022-11-16T14:42:05.322Z,16.40
2022-11-16T14:44:39.077Z,15.02
2022-11-16T14:47:23.448Z,16.05
2022-11-16T14:49:52.551Z,15.32
2022-11-16T14:52:31.159Z,32.42
2022-11-16T14:55:04.543Z,15.30
2022-11-16T14:57:32.943Z,15.77
2022-11-16T15:00:13.131Z,14.52
2022-11-16T15:05:16.928Z,9.80
2022-11-16T15:07:50.203Z,7.38
2022-11-16T15:10:21.583Z,9.13
2022-11-16T15:12:53.015Z,9.50
2022-11-16T15:15:24.704Z,7.55
2022-11-16T15:18:09.369Z,6.45
2022-11-16T15:20:48.051Z,7.32
2022-11-16T15:23:18.491Z,8.35
2022-11-16T15:25:54.232Z,7.15
2022-11-16T15:28:26.044Z,8.18
2022-11-16T15:30:56.959Z,7.47
2022-11-16T15:33:28.116Z,7.90
2022-11-16T15:35:56.638Z,8.50
2022-11-16T15:38:28.683Z,9.07
2022-11-16T15:40:59.745Z,9.35
2022-11-16T15:43:32.808Z,7.55
2022-11-16T15:46:02.572Z,9.60
2022-11-16T15:48:34.510Z,9.82
2022-11-16T15:51:09.054Z,8.52
2022-11-16T15:53:42.276Z,7.68
2022-11-16T15:56:16.546Z,7.45
2022-11-16T15:58:45.904Z,7.15
2022-11-16T16:01:15.432Z,6.97
2022-11-16T16:03:55.997Z,5.90
2022-11-16T16:06:47.500Z,6.28
2022-11-16T16:09:25.631Z,6.85
2022-11-16T16:11:56.195Z,7.15
2022-11-16T16:14:28.294Z,7.57
2022-11-16T16:16:58.917Z,7.35
2022-11-16T16:19:41.812Z,6.97
2022-11-16T16:22:15.922Z,7.38
2022-11-16T16:24:51.732Z,8.27
2022-11-16T16:27:58.994Z,7.53
2022-11-16T16:30:38.040Z,7.60
2022-11-16T16:33:07.251Z,7.18
2022-11-16T16:35:36.726Z,6.53
2022-11-16T16:38:14.671Z,7.68
2022-11-16T16:40:47.467Z,6.50
2022-11-16T16:43:19.169Z,5.85
2022-11-16T16:45:47.795Z,6.57
2022-11-16T16:48:16.397Z,6.03
2022-11-16T16:50:49.418Z,7.35
2022-11-16T16:53:33.730Z,7.22
2022-11-16T16:56:05.040Z,7.30
2022-11-16T16:58:34.040Z,8.23
2022-11-16T17:01:05.657Z,7.72
2022-11-16T17:03:34.413Z,8.25
2022-11-16T17:06:04.900Z,10.13
2022-11-16T17:08:35.109Z,9.40
2022-11-16T17:11:05.681Z,10.90
2022-11-16T17:13:34.646Z,11.60
2022-11-16T17:16:06.043Z,12.65
2022-11-16T17:18:34.462Z,10.27
2022-11-16T17:21:06.808Z,12.35
2022-11-16T17:23:36.269Z,8.23
2022-11-16T17:26:08.635Z,7.47
2022-11-16T17:28:37.470Z,7.15
2022-11-16T17:31:08.354Z,8.30
2022-11-16T17:33:38.760Z,6.65
2022-11-16T17:36:08.900Z,6.40
2022-11-16T17:38:38.669Z,6.47
2022-11-16T17:41:12.732Z,7.15
2022-11-16T17:46:12.304Z,7.25
2022-11-16T17:48:42.320Z,8.00
2022-11-16T17:51:11.020Z,8.23
2022-11-16T17:53:40.745Z,8.35
2022-11-16T17:56:12.538Z,7.60
2022-11-16T17:58:42.548Z,8.00
2022-11-16T18:01:10.953Z,7.95
2022-11-16T18:03:40.723Z,8.32
2022-11-16T18:06:13.447Z,8.88
2022-11-16T18:08:43.698Z,9.82
2022-11-16T18:11:15.190Z,8.13
2022-11-16T18:13:44.806Z,9.25
2022-11-16T18:16:14.899Z,9.40
2022-11-16T18:18:45.257Z,7.65
2022-11-16T18:21:20.373Z,8.18
2022-11-16T18:23:49.718Z,10.52
2022-11-16T18:26:22.417Z,9.65
2022-11-16T18:28:52.661Z,9.20
2022-11-16T18:31:22.881Z,7.50
2022-11-16T18:33:52.266Z,7.72
2022-11-16T18:36:24.188Z,7.82
2022-11-16T18:38:54.583Z,7.32
2022-11-16T18:41:31.805Z,9.38
2022-11-16T18:44:02.938Z,10.70
2022-11-16T18:46:33.312Z,12.15
2022-11-16T18:49:02.162Z,12.30
2022-11-16T18:51:30.830Z,20.27
2022-11-16T18:53:59.622Z,22.10
2022-11-16T18:56:29.825Z,17.95
2022-11-16T18:58:59.858Z,20.83
2022-11-16T19:01:29.987Z,21.83
2022-11-16T19:03:58.515Z,16.48
2022-11-16T19:06:26.951Z,16.35
2022-11-16T19:08:59.616Z,16.20
2022-11-16T19:11:30.054Z,15.48
2022-11-16T19:14:04.039Z,19.00
2022-11-16T19:16:32.815Z,17.63
2022-11-16T19:19:02.631Z,16.60
2022-11-16T19:21:33.412Z,23.98
2022-11-16T19:24:02.189Z,25.63
2022-11-16T19:26:32.103Z,25.25
2022-11-16T19:29:05.454Z,25.95
2022-11-16T19:31:36.936Z,33.50
2022-11-16T19:34:07.947Z,29.27
2022-11-16T19:36:37.879Z,35.72
2022-11-16T19:39:07.288Z,47.25
2022-11-16T19:41:40.859Z,35.67
2022-11-16T19:44:11.162Z,46.97
2022-11-16T19:46:39.843Z,46.58
2022-11-16T19:49:13.445Z,30.05
2022-11-16T19:51:46.377Z,29.38
2022-11-16T19:54:14.998Z,43.65
2022-11-16T19:56:49.298Z,45.97
2022-11-16T19:59:20.760Z,35.03
2022-11-16T20:01:49.734Z,29.48
2022-11-16T20:04:18.049Z,31.98
2022-11-16T20:06:46.373Z,27.20
2022-11-16T20:09:14.819Z,33.95
2022-11-16T20:11:50.747Z,32.33
2022-11-16T20:14:33.016Z,31.50
2022-11-16T20:17:02.244Z,33.22
2022-11-16T20:19:31.056Z,33.58
2022-11-16T20:22:00.021Z,27.42
2022-11-16T20:24:28.411Z,30.33
2022-11-16T20:26:58.206Z,40.17
2022-11-16T20:29:26.612Z,64.40
2022-11-16T20:31:54.980Z,51.35
2022-11-16T20:34:23.777Z,38.00
2022-11-16T20:36:53.283Z,27.52
2022-11-16T20:39:47.047Z,35.08
2022-11-16T20:42:17.187Z,38.58
2022-11-16T20:44:46.060Z,42.42
2022-11-16T20:47:15.759Z,42.65
2022-11-16T20:49:44.686Z,44.95
2022-11-16T20:52:13.238Z,42.38
2022-11-16T20:54:43.593Z,41.03
2022-11-16T20:57:12.699Z,26.13
2022-11-16T20:59:42.478Z,23.65
2022-11-16T21:02:13.875Z,29.15
2022-11-16T21:04:42.331Z,21.90
2022-11-16T21:07:12.392Z,21.25
2022-11-16T21:09:56.090Z,22.88
2022-11-16T21:12:43.088Z,30.17
2022-11-16T21:17:41.619Z,26.17
2022-11-16T21:20:28.073Z,23.85
2022-11-16T21:22:57.158Z,25.98
2022-11-16T21:25:25.766Z,30.63
2022-11-16T21:27:54.174Z,24.63
2022-11-16T21:30:24.057Z,27.80
2022-11-16T21:32:52.789Z,30.52
2022-11-16T21:35:23.683Z,44.13
2022-11-16T21:37:52.366Z,45.75
2022-11-16T21:40:21.180Z,62.55
2022-11-16T21:42:50.722Z,82.32
2022-11-16T21:45:19.448Z,49.58
2022-11-16T21:47:51.824Z,56.95
2022-11-16T21:50:35.536Z,61.45
2022-11-16T21:53:04.379Z,49.55
2022-11-16T21:55:33.366Z,35.15
2022-11-16T21:58:07.278Z,22.45
2022-11-16T22:00:36.071Z,16.58
2022-11-16T22:03:07.751Z,16.95
2022-11-16T22:05:56.352Z,15.57
2022-11-16T22:08:24.975Z,11.68
2022-11-16T22:10:54.901Z,12.38
2022-11-16T22:13:26.171Z,9.88
2022-11-16T22:15:56.410Z,10.50
2022-11-16T22:18:26.629Z,9.90
2022-11-16T22:20:55.840Z,8.85
2022-11-16T22:23:25.977Z,9.73
2022-11-16T22:25:56.776Z,8.75
2022-11-16T22:28:25.682Z,7.97
2022-11-16T22:31:01.455Z,8.50
2022-11-16T22:33:36.552Z,8.45
2022-11-16T22:36:05.896Z,10.05
2022-11-16T22:38:35.049Z,9.65
2022-11-16T22:41:03.893Z,9.13
2022-11-16T22:43:33.707Z,9.27
2022-11-16T22:46:04.472Z,10.55
2022-11-16T22:48:35.730Z,10.20
2022-11-16T22:51:08.928Z,9.50
2022-11-16T22:53:37.657Z,8.52
2022-11-16T22:56:08.660Z,10.25
2022-11-16T22:58:37.793Z,10.45
2022-11-16T23:01:09.536Z,9.95
2022-11-16T23:03:40.192Z,9.48
2022-11-16T23:06:09.171Z,9.45
2022-11-16T23:08:38.004Z,9.82
2022-11-16T23:11:26.184Z,9.80
2022-11-16T23:14:12.703Z,9.70
2022-11-16T23:16:42.001Z,8.32
2022-11-16T23:19:27.990Z,9.68
2022-11-16T23:22:13.981Z,9.30
2022-11-16T23:24:59.960Z,9.15
2022-11-16T23:27:30.805Z,9.55
2022-11-16T23:29:59.978Z,9.50
2022-11-16T23:32:28.595Z,9.93
2022-11-16T23:34:58.421Z,9.73
2022-11-16T23:37:27.045Z,9.02
2022-11-16T23:39:55.435Z,9.70
2022-11-16T23:42:41.376Z,9.18
2022-11-16T23:45:10.399Z,9.00
2022-11-16T23:47:38.752Z,8.68
2022-11-16T23:50:09.253Z,11.25
2022-11-16T23:52:37.590Z,10.18
2022-11-16T23:55:07.028Z,11.05
2022-11-16T23:57:35.838Z,12.10
